Time;durP1;ratioP1;P1;durP2;ratioP2;P2;SDS_P1;SDS_P2;PMS_P1;PMS_P2;Temp;Humidity;BMP_temperature;BMP_pressure;BME280_temperature;BME280_humidity;BME280_pressure;Samples;Min_cycle;Max_cycle;Signal;HPM_P1;HPM_P2
2023/12/13 00:01:07;;;;;;;4.60;1.30;;;;;;;;;;8256241;28;20380;-57
2023/12/13 00:05:07;;;;;;;7.47;1.60;;;;;;;;;;8244705;28;20105;-57
2023/12/13 00:09:11;;;;;;;5.90;1.70;;;;;;;;;;8258836;28;20095;-56
2023/12/13 00:13:11;;;;;;;4.78;1.63;;;;;;;;;;8263957;28;20035;-56
2023/12/13 00:17:14;;;;;;;3.78;1.25;;;;;;;;;;8260973;28;20494;-57
2023/12/13 00:21:17;;;;;;;5.70;1.30;;;;;;;;;;8260519;28;20031;-60
2023/12/13 00:25:17;;;;;;;6.10;1.30;;;;;;;;;;8259781;28;20868;-57
2023/12/13 00:29:18;;;;;;;5.90;1.35;;;;;;;;;;8261439;28;20028;-57
2023/12/13 00:33:18;;;;;;;3.13;1.30;;;;;;;;;;8259623;28;20068;-57
2023/12/13 00:37:18;;;;;;;5.07;1.48;;;;;;;;;;8261099;28;20029;-57
2023/12/13 00:41:18;;;;;;;7.28;1.30;;;;;;;;;;8260529;28;20036;-59
2023/12/13 00:45:19;;;;;;;4.53;1.73;;;;;;;;;;8263074;28;20064;-58
2023/12/13 00:49:20;;;;;;;8.38;1.50;;;;;;;;;;8262400;28;20030;-58
2023/12/13 00:53:20;;;;;;;5.60;1.20;;;;;;;;;;8258631;28;20029;-57
2023/12/13 00:57:20;;;;;;;5.72;1.40;;;;;;;;;;8262950;28;20026;-57
2023/12/13 01:01:20;;;;;;;7.72;2.28;;;;;;;;;;8265445;28;20140;-57
2023/12/13 01:05:21;;;;;;;9.68;1.25;;;;;;;;;;8267661;28;20435;-57
2023/12/13 01:09:21;;;;;;;5.38;1.20;;;;;;;;;;8264960;28;20029;-58
2023/12/13 01:13:21;;;;;;;5.38;1.40;;;;;;;;;;8265904;28;20038;-58
2023/12/13 01:17:21;;;;;;;7.53;1.45;;;;;;;;;;8263493;28;20042;-58
2023/12/13 01:21:21;;;;;;;6.88;1.40;;;;;;;;;;8262508;28;20028;-58
2023/12/13 01:25:22;;;;;;;7.30;1.60;;;;;;;;;;8265290;28;20029;-57
2023/12/13 01:29:22;;;;;;;6.43;1.35;;;;;;;;;;8265499;28;20033;-58
2023/12/13 01:33:22;;;;;;;5.27;1.50;;;;;;;;;;8261231;28;20045;-57
2023/12/13 01:37:22;;;;;;;5.35;1.60;;;;;;;;;;8256877;28;20816;-58
2023/12/13 01:41:23;;;;;;;7.40;1.77;;;;;;;;;;8258604;28;20064;-58
2023/12/13 01:45:23;;;;;;;4.68;1.10;;;;;;;;;;8261098;28;20033;-57
2023/12/13 01:49:23;;;;;;;8.57;1.73;;;;;;;;;;8263747;28;20490;-56
2023/12/13 01:53:24;;;;;;;6.53;1.70;;;;;;;;;;8264823;28;20375;-56
2023/12/13 01:57:24;;;;;;;6.13;1.52;;;;;;;;;;8264668;28;20546;-57
2023/12/13 02:01:24;;;;;;;4.95;1.30;;;;;;;;;;8264234;28;20037;-58
2023/12/13 02:05:26;;;;;;;7.30;1.50;;;;;;;;;;8251833;28;20037;-57
2023/12/13 02:09:26;;;;;;;8.80;1.40;;;;;;;;;;8262812;28;20935;-58
2023/12/13 02:13:26;;;;;;;5.53;1.40;;;;;;;;;;8261406;28;20022;-58
2023/12/13 02:17:27;;;;;;;5.17;1.40;;;;;;;;;;8257571;28;20125;-55
2023/12/13 02:21:27;;;;;;;4.70;1.30;;;;;;;;;;8261561;28;20284;-57
2023/12/13 02:25:45;;;;;;;4.15;1.23;;;;;;;;;;8263019;28;20032;-56
2023/12/13 02:29:47;;;;;;;5.57;1.27;;;;;;;;;;8263114;28;20045;-56
2023/12/13 02:33:47;;;;;;;4.35;1.13;;;;;;;;;;8258315;28;20044;-55
2023/12/13 02:37:49;;;;;;;5.57;1.17;;;;;;;;;;8262498;28;20022;-57
2023/12/13 02:41:49;;;;;;;4.00;1.10;;;;;;;;;;8262621;28;20034;-57
2023/12/13 02:45:50;;;;;;;6.60;1.67;;;;;;;;;;8257524;28;20168;-58
2023/12/13 02:49:50;;;;;;;5.40;1.27;;;;;;;;;;8254326;28;20025;-55
2023/12/13 02:53:50;;;;;;;3.53;1.42;;;;;;;;;;8253552;28;22031;-57
2023/12/13 02:57:50;;;;;;;5.87;1.63;;;;;;;;;;8261824;28;20061;-58
2023/12/13 03:01:52;;;;;;;3.85;1.08;;;;;;;;;;8254378;28;20036;-58
2023/12/13 03:05:52;;;;;;;5.80;1.52;;;;;;;;;;8256337;28;21866;-57
2023/12/13 03:09:52;;;;;;;6.38;1.33;;;;;;;;;;8257886;28;20195;-56
2023/12/13 03:13:52;;;;;;;7.13;1.70;;;;;;;;;;8256423;28;20360;-57
2023/12/13 03:17:52;;;;;;;7.82;1.40;;;;;;;;;;8258499;28;20038;-56
2023/12/13 03:21:53;;;;;;;3.80;1.10;;;;;;;;;;8262053;28;20029;-57
2023/12/13 03:25:53;;;;;;;5.40;1.33;;;;;;;;;;8257636;28;20030;-57
2023/12/13 03:29:53;;;;;;;5.35;1.15;;;;;;;;;;8263930;28;21624;-56
2023/12/13 03:33:55;;;;;;;5.57;1.38;;;;;;;;;;8262702;28;20030;-57
2023/12/13 03:37:55;;;;;;;5.47;1.52;;;;;;;;;;8258464;28;22875;-57
2023/12/13 03:41:55;;;;;;;3.22;0.90;;;;;;;;;;8267116;28;20125;-57
2023/12/13 03:45:55;;;;;;;4.43;1.10;;;;;;;;;;8273882;28;20043;-56
2023/12/13 03:49:55;;;;;;;8.63;1.42;;;;;;;;;;8264034;28;20045;-58
2023/12/13 03:53:55;;;;;;;3.60;1.42;;;;;;;;;;8261430;28;20036;-57
2023/12/13 03:57:56;;;;;;;4.85;1.98;;;;;;;;;;8260939;28;20033;-57
2023/12/13 04:01:56;;;;;;;7.13;1.50;;;;;;;;;;8257398;28;20030;-57
2023/12/13 04:05:56;;;;;;;7.43;1.27;;;;;;;;;;8260151;28;21662;-58
2023/12/13 04:09:56;;;;;;;3.72;1.40;;;;;;;;;;8264516;28;20375;-57
2023/12/13 04:13:56;;;;;;;6.40;1.47;;;;;;;;;;8265531;28;20057;-57
2023/12/13 04:17:57;;;;;;;2.47;1.40;;;;;;;;;;8263990;28;20033;-57
2023/12/13 04:21:57;;;;;;;3.53;1.00;;;;;;;;;;8264373;28;20022;-56
2023/12/13 04:25:57;;;;;;;5.35;1.42;;;;;;;;;;8263690;28;21039;-56
2023/12/13 04:29:57;;;;;;;3.85;1.30;;;;;;;;;;8259634;28;20163;-57
2023/12/13 04:33:57;;;;;;;3.55;0.90;;;;;;;;;;8253312;28;20048;-57
2023/12/13 04:37:58;;;;;;;2.47;1.20;;;;;;;;;;8257200;28;20036;-56
2023/12/13 04:41:58;;;;;;;3.25;1.05;;;;;;;;;;8258115;28;20026;-56
2023/12/13 04:45:58;;;;;;;4.28;1.08;;;;;;;;;;8255809;28;21859;-57
2023/12/13 04:49:58;;;;;;;4.03;1.30;;;;;;;;;;8256369;28;20033;-56
2023/12/13 04:53:59;;;;;;;5.78;1.35;;;;;;;;;;8254253;28;20036;-58
2023/12/13 04:57:59;;;;;;;3.63;1.52;;;;;;;;;;8257272;28;20544;-58
2023/12/13 05:01:59;;;;;;;7.25;1.70;;;;;;;;;;8252307;28;20033;-57
2023/12/13 05:05:59;;;;;;;5.03;1.52;;;;;;;;;;8255920;28;20055;-57
2023/12/13 05:09:59;;;;;;;4.30;1.17;;;;;;;;;;8254563;28;20027;-57
2023/12/13 05:14:00;;;;;;;10.30;1.63;;;;;;;;;;8256213;28;20028;-55
2023/12/13 05:18:00;;;;;;;4.80;1.30;;;;;;;;;;8255985;28;20066;-57
2023/12/13 05:22:00;;;;;;;5.82;1.33;;;;;;;;;;8262343;28;20037;-56
2023/12/13 05:26:00;;;;;;;3.03;1.10;;;;;;;;;;8261841;28;20111;-57
2023/12/13 05:30:01;;;;;;;5.28;1.30;;;;;;;;;;8257420;28;20983;-58
2023/12/13 05:34:01;;;;;;;6.38;1.60;;;;;;;;;;8259576;28;20025;-57
2023/12/13 05:38:01;;;;;;;4.27;1.23;;;;;;;;;;8260815;28;20517;-57
2023/12/13 05:42:02;;;;;;;5.63;1.27;;;;;;;;;;8249796;28;20033;-58
2023/12/13 05:46:04;;;;;;;6.38;1.20;;;;;;;;;;8252841;28;20034;-58
2023/12/13 05:50:04;;;;;;;5.53;1.40;;;;;;;;;;8250686;28;20821;-57
2023/12/13 05:54:04;;;;;;;12.07;1.42;;;;;;;;;;8257408;28;20052;-59
2023/12/13 05:58:05;;;;;;;7.35;2.20;;;;;;;;;;8259253;28;20021;-57
2023/12/13 06:02:05;;;;;;;8.75;2.83;;;;;;;;;;8252988;28;20786;-59
2023/12/13 06:06:06;;;;;;;12.27;5.73;;;;;;;;;;8256450;28;20104;-57
2023/12/13 06:10:07;;;;;;;14.80;7.13;;;;;;;;;;8257923;28;20018;-58
2023/12/13 06:14:07;;;;;;;7.55;2.70;;;;;;;;;;8259799;28;20746;-58
2023/12/13 06:18:08;;;;;;;5.65;2.40;;;;;;;;;;8254962;28;20030;-57
2023/12/13 06:22:10;;;;;;;6.35;2.92;;;;;;;;;;8256863;28;20029;-57
2023/12/13 06:26:10;;;;;;;11.30;3.15;;;;;;;;;;8257562;28;21190;-57
2023/12/13 06:30:10;;;;;;;4.95;2.72;;;;;;;;;;8258614;28;20127;-58
2023/12/13 06:34:10;;;;;;;5.25;2.47;;;;;;;;;;8257891;28;20022;-57
2023/12/13 06:38:12;;;;;;;4.47;2.13;;;;;;;;;;8255552;28;20018;-57
2023/12/13 06:42:12;;;;;;;6.53;2.20;;;;;;;;;;8257666;28;20537;-57
2023/12/13 06:46:12;;;;;;;3.55;1.77;;;;;;;;;;8257909;28;20122;-57
2023/12/13 06:50:13;;;;;;;6.30;1.90;;;;;;;;;;8260932;28;20025;-57
2023/12/13 06:54:13;;;;;;;3.75;1.70;;;;;;;;;;8258045;28;20338;-56
2023/12/13 06:58:13;;;;;;;3.17;1.50;;;;;;;;;;8257041;28;20029;-57
2023/12/13 07:02:14;;;;;;;7.43;2.10;;;;;;;;;;8255906;28;20033;-56
2023/12/13 07:06:16;;;;;;;13.32;5.60;;;;;;;;;;8266364;28;20081;-56
2023/12/13 07:10:16;;;;;;;8.35;2.45;;;;;;;;;;8263734;28;20030;-57
2023/12/13 07:14:16;;;;;;;4.37;2.10;;;;;;;;;;8265505;28;20334;-57
2023/12/13 07:18:16;;;;;;;3.30;1.80;;;;;;;;;;8261443;28;20315;-57
2023/12/13 07:22:18;;;;;;;5.82;2.00;;;;;;;;;;8261474;28;20029;-57
2023/12/13 07:26:18;;;;;;;6.15;3.33;;;;;;;;;;8262005;28;20033;-56
2023/12/13 07:30:18;;;;;;;9.00;4.15;;;;;;;;;;8258399;28;20539;-57
2023/12/13 07:34:20;;;;;;;11.60;4.60;;;;;;;;;;8265144;28;20036;-57
2023/12/13 07:38:20;;;;;;;6.60;2.30;;;;;;;;;;8260294;28;20098;-57
2023/12/13 07:42:21;;;;;;;6.30;1.70;;;;;;;;;;8260579;28;20025;-57
2023/12/13 07:46:21;;;;;;;7.85;1.83;;;;;;;;;;8264752;28;20510;-55
2023/12/13 07:50:21;;;;;;;1.85;1.00;;;;;;;;;;8268083;28;20040;-56
2023/12/13 07:54:22;;;;;;;3.10;1.20;;;;;;;;;;8264758;28;20026;-57
2023/12/13 07:58:22;;;;;;;2.85;1.00;;;;;;;;;;8263916;28;20036;-57
2023/12/13 08:02:23;;;;;;;1.58;0.75;;;;;;;;;;8260354;28;20083;-57
2023/12/13 08:06:24;;;;;;;2.03;0.77;;;;;;;;;;8261583;28;20052;-57
2023/12/13 08:10:24;;;;;;;1.83;0.73;;;;;;;;;;8263854;28;20022;-58
2023/12/13 08:14:30;;;;;;;2.10;0.70;;;;;;;;;;8256979;28;20112;-57
2023/12/13 08:18:30;;;;;;;2.08;0.70;;;;;;;;;;8261818;28;20300;-57
2023/12/13 08:22:30;;;;;;;2.58;0.77;;;;;;;;;;8260233;28;20226;-57
2023/12/13 08:26:30;;;;;;;1.13;0.70;;;;;;;;;;8266265;28;20032;-57
2023/12/13 08:30:30;;;;;;;3.22;0.82;;;;;;;;;;8264920;28;20124;-56
2023/12/13 08:34:31;;;;;;;1.83;0.65;;;;;;;;;;8264760;28;20032;-57
2023/12/13 08:38:31;;;;;;;1.58;0.75;;;;;;;;;;8265591;28;20108;-56
2023/12/13 08:42:31;;;;;;;2.05;0.80;;;;;;;;;;8266190;28;20036;-56
2023/12/13 08:46:31;;;;;;;1.23;0.60;;;;;;;;;;8263723;28;20044;-58
2023/12/13 08:50:31;;;;;;;0.88;0.60;;;;;;;;;;8265367;28;20053;-56
2023/12/13 08:54:33;;;;;;;4.07;0.88;;;;;;;;;;8265031;28;20113;-57
2023/12/13 08:58:33;;;;;;;1.10;0.60;;;;;;;;;;8265365;28;20059;-57
2023/12/13 09:02:33;;;;;;;1.77;0.80;;;;;;;;;;8261012;28;20071;-57
2023/12/13 09:06:34;;;;;;;1.38;0.80;;;;;;;;;;8261968;28;20029;-56
2023/12/13 09:10:34;;;;;;;2.67;0.70;;;;;;;;;;8265364;28;20033;-56
2023/12/13 09:14:35;;;;;;;2.42;0.80;;;;;;;;;;8264792;28;20112;-57
2023/12/13 09:18:35;;;;;;;0.98;0.60;;;;;;;;;;8264923;28;20040;-56
2023/12/13 09:22:36;;;;;;;0.70;0.50;;;;;;;;;;8263065;28;20048;-56
2023/12/13 09:26:37;;;;;;;1.20;0.53;;;;;;;;;;8264611;28;20033;-57
2023/12/13 09:30:37;;;;;;;4.57;0.70;;;;;;;;;;8266216;28;20044;-57
2023/12/13 09:34:37;;;;;;;1.35;0.60;;;;;;;;;;8266088;28;20349;-55
2023/12/13 09:38:37;;;;;;;0.87;0.70;;;;;;;;;;8263409;28;20025;-56
2023/12/13 09:42:40;;;;;;;2.80;0.77;;;;;;;;;;8260494;28;20034;-56
2023/12/13 09:46:41;;;;;;;4.00;0.68;;;;;;;;;;8260201;28;20041;-57
2023/12/13 09:50:42;;;;;;;2.30;0.60;;;;;;;;;;8259640;28;20770;-57
2023/12/13 09:54:44;;;;;;;1.73;0.65;;;;;;;;;;8258870;28;20030;-58
2023/12/13 09:58:44;;;;;;;1.70;0.75;;;;;;;;;;8256951;28;20461;-57
2023/12/13 10:02:46;;;;;;;0.70;0.70;;;;;;;;;;8255706;28;20785;-58
2023/12/13 10:06:46;;;;;;;1.40;0.60;;;;;;;;;;8261151;28;20033;-58
2023/12/13 10:10:47;;;;;;;3.23;1.10;;;;;;;;;;8259473;28;20032;-58
2023/12/13 10:14:49;;;;;;;2.10;0.73;;;;;;;;;;8258509;28;20280;-57
2023/12/13 10:18:49;;;;;;;4.72;0.73;;;;;;;;;;8259505;28;20039;-57
2023/12/13 10:22:49;;;;;;;1.02;0.63;;;;;;;;;;8257882;28;20112;-58
2023/12/13 10:26:50;;;;;;;1.87;0.80;;;;;;;;;;8254439;28;20051;-57
2023/12/13 10:30:51;;;;;;;1.95;0.90;;;;;;;;;;8252889;28;20362;-57
2023/12/13 10:34:51;;;;;;;3.85;1.00;;;;;;;;;;8258122;28;20021;-56
2023/12/13 10:38:52;;;;;;;2.10;0.70;;;;;;;;;;8255413;28;20029;-57
2023/12/13 10:42:54;;;;;;;1.77;0.82;;;;;;;;;;8257568;28;20036;-57
2023/12/13 10:46:58;;;;;;;1.58;0.80;;;;;;;;;;8257563;28;20172;-57
2023/12/13 10:50:58;;;;;;;;;;;;;;;;;;8261801;28;22268;-56
2023/12/13 10:54:59;;;;;;;2.45;0.88;;;;;;;;;;8255064;28;20339;-57
2023/12/13 10:58:59;;;;;;;2.20;0.90;;;;;;;;;;8259078;28;20072;-56
2023/12/13 11:03:02;;;;;;;3.22;1.10;;;;;;;;;;8255371;28;20387;-57
2023/12/13 11:07:03;;;;;;;2.72;0.80;;;;;;;;;;8255503;28;20021;-58
2023/12/13 11:11:04;;;;;;;2.90;1.00;;;;;;;;;;8258091;28;20036;-57
2023/12/13 11:15:09;;;;;;;2.50;0.95;;;;;;;;;;8264655;28;20051;-58
2023/12/13 11:19:10;;;;;;;2.88;1.00;;;;;;;;;;8263323;28;20087;-58
2023/12/13 11:23:12;;;;;;;2.80;0.90;;;;;;;;;;8262665;28;20036;-57
2023/12/13 11:27:14;;;;;;;4.68;1.02;;;;;;;;;;8259527;28;20022;-57
2023/12/13 11:31:17;;;;;;;2.65;0.90;;;;;;;;;;8253333;28;20091;-57
2023/12/13 11:35:19;;;;;;;4.18;0.82;;;;;;;;;;8262175;28;20028;-57
2023/12/13 11:39:19;;;;;;;3.08;1.27;;;;;;;;;;8255435;28;20017;-58
2023/12/13 11:43:19;;;;;;;3.40;1.20;;;;;;;;;;8256109;28;20145;-57
2023/12/13 11:47:20;;;;;;;3.60;1.27;;;;;;;;;;8256840;28;20102;-60
2023/12/13 11:51:21;;;;;;;3.35;1.52;;;;;;;;;;8259281;28;20038;-57
2023/12/13 11:55:21;;;;;;;3.75;1.23;;;;;;;;;;8264148;28;20036;-61
2023/12/13 11:59:21;;;;;;;3.50;1.20;;;;;;;;;;8261089;28;20028;-58
2023/12/13 12:03:22;;;;;;;4.20;1.37;;;;;;;;;;8260229;28;20046;-57
2023/12/13 12:07:22;;;;;;;6.72;2.20;;;;;;;;;;8261859;28;20288;-57
2023/12/13 12:11:23;;;;;;;4.15;1.73;;;;;;;;;;8262518;28;20037;-58
2023/12/13 12:15:25;;;;;;;3.85;1.35;;;;;;;;;;8260502;28;20338;-58
2023/12/13 12:19:25;;;;;;;4.45;1.40;;;;;;;;;;8264308;28;20024;-58
2023/12/13 12:23:28;;;;;;;5.60;1.30;;;;;;;;;;8260068;28;20144;-57
2023/12/13 12:27:29;;;;;;;5.95;1.30;;;;;;;;;;8260320;28;20033;-57
2023/12/13 12:31:30;;;;;;;7.90;1.30;;;;;;;;;;8256030;28;20038;-56
2023/12/13 12:35:30;;;;;;;5.38;1.33;;;;;;;;;;8262531;28;20437;-57
2023/12/13 12:39:31;;;;;;;3.67;1.30;;;;;;;;;;8256861;28;20048;-55
2023/12/13 12:43:33;;;;;;;4.20;1.55;;;;;;;;;;8261704;28;20324;-56
2023/12/13 12:47:33;;;;;;;5.65;1.50;;;;;;;;;;8248108;28;20038;-56
2023/12/13 12:51:33;;;;;;;6.78;1.23;;;;;;;;;;8249602;28;20055;-56
2023/12/13 12:55:34;;;;;;;5.43;1.27;;;;;;;;;;8249639;28;20399;-56
2023/12/13 12:59:34;;;;;;;3.88;1.45;;;;;;;;;;8255260;28;20268;-57
2023/12/13 13:03:35;;;;;;;5.95;1.50;;;;;;;;;;8251918;28;20234;-57
2023/12/13 13:07:35;;;;;;;5.57;1.60;;;;;;;;;;8252484;28;20438;-57
2023/12/13 13:11:36;;;;;;;5.32;1.30;;;;;;;;;;8251160;28;20025;-58
2023/12/13 13:15:36;;;;;;;3.77;1.30;;;;;;;;;;8253924;28;20184;-57
2023/12/13 13:19:36;;;;;;;1.77;1.10;;;;;;;;;;8252655;28;20256;-57
2023/12/13 13:23:36;;;;;;;4.47;1.60;;;;;;;;;;8248309;28;20037;-57
2023/12/13 13:27:37;;;;;;;3.78;1.50;;;;;;;;;;8253142;28;20053;-57
2023/12/13 13:31:37;;;;;;;8.40;1.75;;;;;;;;;;8251362;28;20847;-56
2023/12/13 13:35:37;;;;;;;2.85;1.33;;;;;;;;;;8251435;28;20021;-57
2023/12/13 13:39:37;;;;;;;5.00;1.50;;;;;;;;;;8245783;28;20746;-57
2023/12/13 13:43:38;;;;;;;3.40;1.20;;;;;;;;;;8265086;28;20053;-58
2023/12/13 13:47:38;;;;;;;3.30;1.33;;;;;;;;;;8264919;28;20041;-57
2023/12/13 13:51:38;;;;;;;6.63;1.27;;;;;;;;;;8265079;28;20674;-57
2023/12/13 13:55:38;;;;;;;5.93;1.35;;;;;;;;;;8266287;28;20365;-57
2023/12/13 13:59:38;;;;;;;1.65;1.08;;;;;;;;;;8264614;28;20505;-57
2023/12/13 14:03:39;;;;;;;3.90;1.30;;;;;;;;;;8261514;28;20151;-57
2023/12/13 14:07:39;;;;;;;4.13;1.37;;;;;;;;;;8266738;28;20016;-58
2023/12/13 14:11:39;;;;;;;4.22;1.08;;;;;;;;;;8260093;28;20306;-58
2023/12/13 14:15:39;;;;;;;3.67;1.70;;;;;;;;;;8261493;28;20119;-58
2023/12/13 14:19:40;;;;;;;5.90;1.50;;;;;;;;;;8262150;28;20013;-57
2023/12/13 14:23:40;;;;;;;4.45;1.38;;;;;;;;;;8268029;28;20033;-55
2023/12/13 14:27:40;;;;;;;5.90;1.40;;;;;;;;;;8258211;28;20035;-57
2023/12/13 14:31:40;;;;;;;2.85;1.50;;;;;;;;;;8259684;28;20726;-56
2023/12/13 14:35:41;;;;;;;4.13;1.77;;;;;;;;;;8260775;28;20017;-56
2023/12/13 14:39:42;;;;;;;3.95;1.60;;;;;;;;;;8262314;28;21009;-58
2023/12/13 14:43:43;;;;;;;3.93;1.90;;;;;;;;;;8263372;28;20017;-57
2023/12/13 14:47:43;;;;;;;4.28;1.60;;;;;;;;;;8262518;28;20482;-57
2023/12/13 14:51:44;;;;;;;1.38;1.05;;;;;;;;;;8263142;28;20033;-57
2023/12/13 14:55:46;;;;;;;2.15;1.15;;;;;;;;;;8264154;28;20026;-57
2023/12/13 14:59:46;;;;;;;6.00;1.50;;;;;;;;;;8262269;28;20013;-57
2023/12/13 15:03:46;;;;;;;2.90;1.20;;;;;;;;;;8257082;28;20038;-57
2023/12/13 15:07:48;;;;;;;1.93;1.10;;;;;;;;;;8256535;28;20069;-57
2023/12/13 15:11:49;;;;;;;2.90;0.75;;;;;;;;;;8258231;28;20284;-59
2023/12/13 15:15:49;;;;;;;3.85;1.20;;;;;;;;;;8258231;28;20037;-59
2023/12/13 15:19:49;;;;;;;1.98;0.80;;;;;;;;;;8255558;28;20025;-57
2023/12/13 15:23:50;;;;;;;1.05;0.63;;;;;;;;;;8262270;28;20200;-57
2023/12/13 15:27:50;;;;;;;4.70;0.82;;;;;;;;;;8270626;28;20053;-56
2023/12/13 15:31:50;;;;;;;3.20;0.90;;;;;;;;;;8266320;28;20033;-57
2023/12/13 15:35:51;;;;;;;3.80;0.95;;;;;;;;;;8266119;28;20293;-57
2023/12/13 15:39:51;;;;;;;2.80;1.20;;;;;;;;;;8266329;28;20026;-56
2023/12/13 15:43:51;;;;;;;1.42;0.70;;;;;;;;;;8257741;28;20021;-56
2023/12/13 15:47:51;;;;;;;1.77;0.82;;;;;;;;;;8266033;28;20037;-57
2023/12/13 15:51:51;;;;;;;3.90;1.10;;;;;;;;;;8266025;28;20032;-59
2023/12/13 15:55:51;;;;;;;2.67;1.00;;;;;;;;;;8262008;28;20095;-57
2023/12/13 15:59:52;;;;;;;2.85;0.90;;;;;;;;;;8262874;28;20017;-56
2023/12/13 16:03:52;;;;;;;3.63;0.80;;;;;;;;;;8264899;28;20834;-57
2023/12/13 16:07:52;;;;;;;4.22;1.00;;;;;;;;;;8261914;28;20318;-57
2023/12/13 16:11:52;;;;;;;4.82;1.20;;;;;;;;;;8262427;28;20018;-57
2023/12/13 16:15:58;;;;;;;5.25;1.30;;;;;;;;;;8262164;28;20033;-57
2023/12/13 16:19:58;;;;;;;5.28;1.30;;;;;;;;;;8263885;28;20035;-57
2023/12/13 16:23:59;;;;;;;4.07;1.15;;;;;;;;;;8265075;28;20025;-57
2023/12/13 16:27:59;;;;;;;7.68;3.40;;;;;;;;;;8264010;28;20022;-57
2023/12/13 16:31:59;;;;;;;27.63;11.77;;;;;;;;;;8264050;28;20038;-58
2023/12/13 16:35:59;;;;;;;36.83;15.68;;;;;;;;;;8260200;28;20021;-58
2023/12/13 16:40:00;;;;;;;30.88;15.18;;;;;;;;;;8259550;28;20025;-57
2023/12/13 16:44:02;;;;;;;22.90;12.33;;;;;;;;;;8259764;28;20708;-57
2023/12/13 16:48:03;;;;;;;15.45;8.23;;;;;;;;;;8258303;28;20284;-57
2023/12/13 16:52:03;;;;;;;11.45;6.20;;;;;;;;;;8258184;28;20040;-57
2023/12/13 16:56:03;;;;;;;8.57;3.35;;;;;;;;;;8264366;28;20028;-56
2023/12/13 17:00:04;;;;;;;6.18;2.42;;;;;;;;;;8262025;28;20025;-55
2023/12/13 17:04:06;;;;;;;5.10;3.90;;;;;;;;;;8258215;28;20014;-55
2023/12/13 17:08:06;;;;;;;5.63;2.90;;;;;;;;;;8260049;28;20030;-57
2023/12/13 17:12:06;;;;;;;2.88;2.30;;;;;;;;;;8260931;28;20104;-57
2023/12/13 17:16:07;;;;;;;5.60;2.03;;;;;;;;;;8261769;28;20033;-57
2023/12/13 17:20:07;;;;;;;3.28;1.73;;;;;;;;;;8258290;28;20033;-57
2023/12/13 17:24:07;;;;;;;3.35;1.52;;;;;;;;;;8260094;28;20068;-58
2023/12/13 17:28:07;;;;;;;3.17;1.38;;;;;;;;;;8260964;28;21740;-57
2023/12/13 17:32:08;;;;;;;2.35;1.35;;;;;;;;;;8256126;28;20168;-56
2023/12/13 17:36:08;;;;;;;2.90;1.35;;;;;;;;;;8258793;28;20041;-57
2023/12/13 17:40:10;;;;;;;3.25;1.65;;;;;;;;;;8262186;28;23383;-58
2023/12/13 17:44:12;;;;;;;3.58;1.30;;;;;;;;;;8258769;28;20037;-58
2023/12/13 17:48:12;;;;;;;2.25;1.35;;;;;;;;;;8259143;28;20133;-63
2023/12/13 17:52:14;;;;;;;2.28;1.50;;;;;;;;;;8261399;28;20507;-57
2023/12/13 17:56:17;;;;;;;4.45;2.00;;;;;;;;;;8257771;28;20017;-56
2023/12/13 18:00:18;;;;;;;8.00;3.88;;;;;;;;;;8261466;28;20037;-57
2023/12/13 18:04:18;;;;;;;3.92;2.65;;;;;;;;;;8261076;28;20021;-56
2023/12/13 18:08:18;;;;;;;7.97;4.70;;;;;;;;;;8263584;28;20026;-57
2023/12/13 18:12:18;;;;;;;5.17;3.03;;;;;;;;;;8264315;28;20116;-56
2023/12/13 18:16:18;;;;;;;4.43;2.20;;;;;;;;;;8266442;28;20610;-57
2023/12/13 18:20:19;;;;;;;2.60;1.45;;;;;;;;;;8260464;28;20044;-57
2023/12/13 18:24:19;;;;;;;2.80;1.20;;;;;;;;;;8262897;28;20851;-57
2023/12/13 18:28:19;;;;;;;3.87;1.30;;;;;;;;;;8261931;28;20021;-56
2023/12/13 18:32:19;;;;;;;4.28;1.80;;;;;;;;;;8254854;28;20594;-57
2023/12/13 18:36:19;;;;;;;2.42;1.30;;;;;;;;;;8257605;28;20022;-59
2023/12/13 18:40:20;;;;;;;5.68;1.50;;;;;;;;;;8252511;28;20086;-56
2023/12/13 18:44:20;;;;;;;4.27;1.70;;;;;;;;;;8259065;28;20794;-57
2023/12/13 18:48:20;;;;;;;6.63;1.10;;;;;;;;;;8257326;28;20626;-57
2023/12/13 18:52:21;;;;;;;4.65;1.20;;;;;;;;;;8266085;28;20030;-57
2023/12/13 18:56:21;;;;;;;6.82;1.65;;;;;;;;;;8260272;28;20500;-57
2023/12/13 19:00:22;;;;;;;3.78;1.30;;;;;;;;;;8267288;28;20025;-57
2023/12/13 19:04:22;;;;;;;2.35;1.10;;;;;;;;;;8271561;28;20107;-57
2023/12/13 19:08:22;;;;;;;3.00;1.15;;;;;;;;;;8268316;28;20048;-57
2023/12/13 19:12:22;;;;;;;7.80;1.42;;;;;;;;;;8265539;28;20101;-56
2023/12/13 19:16:28;;;;;;;2.38;1.25;;;;;;;;;;8265920;28;20632;-57
2023/12/13 19:20:28;;;;;;;3.83;1.60;;;;;;;;;;8257234;28;20030;-56
2023/12/13 19:24:28;;;;;;;2.65;1.30;;;;;;;;;;8258133;28;20037;-57
2023/12/13 19:28:29;;;;;;;2.85;1.73;;;;;;;;;;8260390;28;20037;-57
2023/12/13 19:32:29;;;;;;;4.78;1.52;;;;;;;;;;8253747;28;20041;-56
2023/12/13 19:36:29;;;;;;;3.70;1.95;;;;;;;;;;8252609;28;20021;-57
2023/12/13 19:40:29;;;;;;;8.25;2.30;;;;;;;;;;8256021;28;20465;-58
2023/12/13 19:44:30;;;;;;;5.30;2.30;;;;;;;;;;8254232;28;20045;-58
2023/12/13 19:48:31;;;;;;;5.33;2.27;;;;;;;;;;8254825;28;20036;-56
2023/12/13 19:52:31;;;;;;;3.67;2.00;;;;;;;;;;8259001;28;20405;-56
2023/12/13 19:56:31;;;;;;;6.80;2.60;;;;;;;;;;8260600;28;20049;-57
2023/12/13 20:00:32;;;;;;;8.43;2.55;;;;;;;;;;8254142;28;20155;-57
2023/12/13 20:04:32;;;;;;;5.95;2.95;;;;;;;;;;8253890;28;20616;-58
2023/12/13 20:08:32;;;;;;;6.63;2.72;;;;;;;;;;8246164;28;20059;-57
2023/12/13 20:12:33;;;;;;;4.32;2.08;;;;;;;;;;8252050;28;20022;-58
2023/12/13 20:16:33;;;;;;;4.70;2.55;;;;;;;;;;8245903;28;20110;-58
2023/12/13 20:20:33;;;;;;;7.63;2.60;;;;;;;;;;8247752;28;20046;-58
2023/12/13 20:24:34;;;;;;;9.90;3.20;;;;;;;;;;8251835;28;20135;-58
2023/12/13 20:28:36;;;;;;;10.02;5.40;;;;;;;;;;8251119;28;20087;-57
2023/12/13 20:32:37;;;;;;;22.17;8.80;;;;;;;;;;8248870;28;20041;-58
2023/12/13 20:36:37;;;;;;;20.05;9.40;;;;;;;;;;8248906;28;20025;-57
2023/12/13 20:40:38;;;;;;;6.88;3.45;;;;;;;;;;8248243;28;20100;-57
2023/12/13 20:44:38;;;;;;;5.22;2.72;;;;;;;;;;8250860;28;20631;-57
2023/12/13 20:48:38;;;;;;;5.88;2.83;;;;;;;;;;8254922;28;20052;-57
2023/12/13 20:52:39;;;;;;;8.53;3.67;;;;;;;;;;8248359;28;20534;-57
2023/12/13 20:56:39;;;;;;;4.07;2.53;;;;;;;;;;8242780;28;20771;-57
2023/12/13 21:00:40;;;;;;;5.80;2.40;;;;;;;;;;8249132;28;20041;-57
2023/12/13 21:04:40;;;;;;;7.70;2.00;;;;;;;;;;8249185;28;20147;-58
2023/12/13 21:08:41;;;;;;;6.15;2.45;;;;;;;;;;8253643;28;20139;-57
2023/12/13 21:12:43;;;;;;;2.78;1.75;;;;;;;;;;8255430;28;20025;-56
2023/12/13 21:16:44;;;;;;;4.25;1.63;;;;;;;;;;8258400;28;20030;-56
2023/12/13 21:20:44;;;;;;;4.55;2.30;;;;;;;;;;8256975;28;20080;-56
2023/12/13 21:24:44;;;;;;;7.40;1.90;;;;;;;;;;8250860;28;20455;-57
2023/12/13 21:28:46;;;;;;;4.22;1.60;;;;;;;;;;8258798;28;20056;-57
2023/12/13 21:32:46;;;;;;;4.93;2.00;;;;;;;;;;8256392;28;20137;-58
2023/12/13 21:36:47;;;;;;;5.75;2.22;;;;;;;;;;8257179;28;20078;-58
2023/12/13 21:40:47;;;;;;;7.53;2.05;;;;;;;;;;8256817;28;20014;-58
2023/12/13 21:44:47;;;;;;;4.57;2.10;;;;;;;;;;8255339;28;20025;-58
2023/12/13 21:48:48;;;;;;;6.15;2.05;;;;;;;;;;8257932;28;20111;-58
2023/12/13 21:52:48;;;;;;;4.10;1.88;;;;;;;;;;8253787;28;20513;-58
2023/12/13 21:56:48;;;;;;;5.57;1.90;;;;;;;;;;8257074;28;20085;-57
2023/12/13 22:00:48;;;;;;;7.00;2.22;;;;;;;;;;8254021;28;20276;-57
2023/12/13 22:04:49;;;;;;;8.45;2.28;;;;;;;;;;8254924;28;20075;-58
2023/12/13 22:08:49;;;;;;;3.72;2.05;;;;;;;;;;8255072;28;20173;-58
2023/12/13 22:12:49;;;;;;;3.40;1.88;;;;;;;;;;8252905;28;20033;-57
2023/12/13 22:16:51;;;;;;;7.28;2.15;;;;;;;;;;8251025;28;20045;-57
2023/12/13 22:20:54;;;;;;;6.22;2.33;;;;;;;;;;8252467;28;20029;-58
2023/12/13 22:24:54;;;;;;;3.47;2.17;;;;;;;;;;8257761;28;20036;-57
2023/12/13 22:28:54;;;;;;;6.25;2.10;;;;;;;;;;8255819;28;20025;-56
2023/12/13 22:32:54;;;;;;;6.03;2.22;;;;;;;;;;8255235;28;20044;-58
2023/12/13 22:36:55;;;;;;;6.20;2.40;;;;;;;;;;8253190;28;20568;-58
2023/12/13 22:40:56;;;;;;;6.57;2.30;;;;;;;;;;8259315;28;20029;-57
2023/12/13 22:44:56;;;;;;;11.20;2.40;;;;;;;;;;8259549;28;20032;-57
2023/12/13 22:48:57;;;;;;;6.75;2.50;;;;;;;;;;8263706;28;20096;-58
2023/12/13 22:52:57;;;;;;;11.15;2.70;;;;;;;;;;8253880;28;20080;-57
2023/12/13 22:56:57;;;;;;;7.55;3.17;;;;;;;;;;8256262;28;20544;-57
2023/12/13 23:00:58;;;;;;;8.98;2.85;;;;;;;;;;8258329;28;20045;-58
2023/12/13 23:04:59;;;;;;;8.30;3.10;;;;;;;;;;8254641;28;20112;-57
2023/12/13 23:08:59;;;;;;;10.35;3.38;;;;;;;;;;8257339;28;20141;-56
2023/12/13 23:13:00;;;;;;;30.73;10.87;;;;;;;;;;8254436;28;20029;-56
2023/12/13 23:17:00;;;;;;;32.17;10.75;;;;;;;;;;8251950;28;20260;-57
2023/12/13 23:21:02;;;;;;;19.30;7.03;;;;;;;;;;8255830;28;20075;-56
2023/12/13 23:25:03;;;;;;;27.85;8.82;;;;;;;;;;8257477;28;20150;-56
2023/12/13 23:29:03;;;;;;;12.35;5.03;;;;;;;;;;8258307;28;20014;-56
2023/12/13 23:33:03;;;;;;;8.52;2.90;;;;;;;;;;8254146;28;20057;-54
2023/12/13 23:37:05;;;;;;;5.32;2.50;;;;;;;;;;8257018;28;20022;-55
2023/12/13 23:41:05;;;;;;;4.10;2.25;;;;;;;;;;8256558;28;20132;-57
2023/12/13 23:45:06;;;;;;;5.23;2.40;;;;;;;;;;8258442;28;21032;-57
2023/12/13 23:49:07;;;;;;;4.07;2.53;;;;;;;;;;8265012;28;20880;-56
2023/12/13 23:53:07;;;;;;;5.43;2.78;;;;;;;;;;8262588;28;22877;-57
2023/12/13 23:57:07;;;;;;;6.00;2.50;;;;;;;;;;8262773;28;20144;-55
